sensor_id;sensor_type;location;lat;lon;timestamp;pressure;altitude;pressure_sealevel;temperature;humidity
76519;BME280;67029;51.054;13.798;2023-03-20T00:01:28;100355.39;;;15.12;53.29
76519;BME280;67029;51.054;13.798;2023-03-20T00:03:55;100354.98;;;15.11;53.02
76519;BME280;67029;51.054;13.798;2023-03-20T00:06:27;100360.45;;;15.11;52.95
76519;BME280;67029;51.054;13.798;2023-03-20T00:08:56;100361.73;;;15.10;52.86
76519;BME280;67029;51.054;13.798;2023-03-20T00:11:31;100362.84;;;15.13;52.98
76519;BME280;67029;51.054;13.798;2023-03-20T00:13:58;100364.55;;;15.13;52.93
76519;BME280;67029;51.054;13.798;2023-03-20T00:16:32;100365.03;;;15.14;52.88
76519;BME280;67029;51.054;13.798;2023-03-20T00:18:57;100362.08;;;15.10;52.95
76519;BME280;67029;51.054;13.798;2023-03-20T00:21:27;100367.75;;;15.08;52.82
76519;BME280;67029;51.054;13.798;2023-03-20T00:23:57;100363.54;;;15.05;52.72
76519;BME280;67029;51.054;13.798;2023-03-20T00:26:33;100363.11;;;15.02;52.79
76519;BME280;67029;51.054;13.798;2023-03-20T00:28:58;100366.11;;;14.93;52.91
76519;BME280;67029;51.054;13.798;2023-03-20T00:31:33;100366.05;;;14.92;52.90
76519;BME280;67029;51.054;13.798;2023-03-20T00:34:00;100369.14;;;14.93;52.86
76519;BME280;67029;51.054;13.798;2023-03-20T00:36:30;100366.97;;;14.90;52.77
76519;BME280;67029;51.054;13.798;2023-03-20T00:39:00;100364.67;;;14.93;52.97
76519;BME280;67029;51.054;13.798;2023-03-20T00:41:41;100365.14;;;14.94;53.02
76519;BME280;67029;51.054;13.798;2023-03-20T00:44:29;100360.97;;;14.94;53.00
76519;BME280;67029;51.054;13.798;2023-03-20T00:46:36;100363.66;;;14.95;53.01
76519;BME280;67029;51.054;13.798;2023-03-20T00:49:01;100359.89;;;14.95;53.14
76519;BME280;67029;51.054;13.798;2023-03-20T00:51:31;100357.11;;;14.82;53.11
76519;BME280;67029;51.054;13.798;2023-03-20T00:54:01;100359.11;;;14.79;53.25
76519;BME280;67029;51.054;13.798;2023-03-20T00:56:34;100365.93;;;14.82;53.29
76519;BME280;67029;51.054;13.798;2023-03-20T00:59:02;100366.00;;;14.82;53.23
76519;BME280;67029;51.054;13.798;2023-03-20T01:01:32;100363.98;;;14.85;53.21
76519;BME280;67029;51.054;13.798;2023-03-20T01:04:11;100363.86;;;14.85;53.10
76519;BME280;67029;51.054;13.798;2023-03-20T01:06:32;100365.36;;;14.81;53.05
76519;BME280;67029;51.054;13.798;2023-03-20T01:09:03;100360.08;;;14.79;53.14
76519;BME280;67029;51.054;13.798;2023-03-20T01:11:33;100362.86;;;14.80;53.21
76519;BME280;67029;51.054;13.798;2023-03-20T01:14:03;100366.06;;;14.84;53.40
76519;BME280;67029;51.054;13.798;2023-03-20T01:16:33;100365.28;;;14.83;53.26
76519;BME280;67029;51.054;13.798;2023-03-20T01:19:03;100358.25;;;14.83;53.18
76519;BME280;67029;51.054;13.798;2023-03-20T01:21:33;100352.66;;;14.82;53.22
76519;BME280;67029;51.054;13.798;2023-03-20T01:24:03;100354.68;;;14.83;53.29
76519;BME280;67029;51.054;13.798;2023-03-20T01:26:38;100357.58;;;14.83;53.42
76519;BME280;67029;51.054;13.798;2023-03-20T01:29:21;100354.49;;;14.84;53.57
76519;BME280;67029;51.054;13.798;2023-03-20T01:31:34;100355.23;;;14.81;53.39
76519;BME280;67029;51.054;13.798;2023-03-20T01:34:04;100356.16;;;14.81;53.49
76519;BME280;67029;51.054;13.798;2023-03-20T01:36:35;100355.79;;;14.80;53.39
76519;BME280;67029;51.054;13.798;2023-03-20T01:39:05;100356.37;;;14.80;53.49
76519;BME280;67029;51.054;13.798;2023-03-20T01:41:35;100354.00;;;14.79;53.57
76519;BME280;67029;51.054;13.798;2023-03-20T01:44:23;100356.45;;;14.77;53.40
76519;BME280;67029;51.054;13.798;2023-03-20T01:46:36;100352.69;;;14.75;53.46
76519;BME280;67029;51.054;13.798;2023-03-20T01:49:08;100353.69;;;14.74;53.58
76519;BME280;67029;51.054;13.798;2023-03-20T01:51:35;100351.34;;;14.72;53.54
76519;BME280;67029;51.054;13.798;2023-03-20T01:54:16;100357.15;;;14.72;53.38
76519;BME280;67029;51.054;13.798;2023-03-20T01:56:39;100355.27;;;14.69;53.65
76519;BME280;67029;51.054;13.798;2023-03-20T01:59:11;100355.83;;;14.70;53.59
76519;BME280;67029;51.054;13.798;2023-03-20T02:01:38;100350.47;;;14.68;53.50
76519;BME280;67029;51.054;13.798;2023-03-20T02:04:08;100352.72;;;14.66;53.68
76519;BME280;67029;51.054;13.798;2023-03-20T02:06:39;100354.08;;;14.66;53.75
76519;BME280;67029;51.054;13.798;2023-03-20T02:09:08;100351.16;;;14.64;53.63
76519;BME280;67029;51.054;13.798;2023-03-20T02:11:40;100354.52;;;14.63;53.64
76519;BME280;67029;51.054;13.798;2023-03-20T02:14:10;100353.50;;;14.63;53.81
76519;BME280;67029;51.054;13.798;2023-03-20T02:16:39;100350.73;;;14.61;53.81
76519;BME280;67029;51.054;13.798;2023-03-20T02:19:22;100356.84;;;14.58;53.71
76519;BME280;67029;51.054;13.798;2023-03-20T02:27:15;100353.29;;;14.55;53.82
76519;BME280;67029;51.054;13.798;2023-03-20T02:29:45;100354.70;;;14.53;53.92
76519;BME280;67029;51.054;13.798;2023-03-20T02:36:58;100353.58;;;14.50;53.97
76519;BME280;67029;51.054;13.798;2023-03-20T02:42:11;100351.12;;;14.46;53.91
76519;BME280;67029;51.054;13.798;2023-03-20T02:44:25;100354.27;;;14.47;53.93
76519;BME280;67029;51.054;13.798;2023-03-20T02:47:03;100351.41;;;14.49;53.96
76519;BME280;67029;51.054;13.798;2023-03-20T02:49:49;100354.06;;;14.49;53.86
76519;BME280;67029;51.054;13.798;2023-03-20T02:51:56;100355.16;;;14.49;54.10
76519;BME280;67029;51.054;13.798;2023-03-20T02:54:31;100359.05;;;14.49;54.12
76519;BME280;67029;51.054;13.798;2023-03-20T02:57:02;100359.45;;;14.47;53.97
76519;BME280;67029;51.054;13.798;2023-03-20T02:59:27;100359.11;;;14.47;54.22
76519;BME280;67029;51.054;13.798;2023-03-20T03:01:56;100358.33;;;14.48;54.16
76519;BME280;67029;51.054;13.798;2023-03-20T03:04:25;100357.33;;;14.47;54.12
76519;BME280;67029;51.054;13.798;2023-03-20T03:06:51;100356.84;;;14.46;54.22
76519;BME280;67029;51.054;13.798;2023-03-20T03:09:22;100353.70;;;14.46;54.20
76519;BME280;67029;51.054;13.798;2023-03-20T03:12:09;100356.86;;;14.45;54.44
76519;BME280;67029;51.054;13.798;2023-03-20T03:16:52;100356.26;;;14.43;54.29
76519;BME280;67029;51.054;13.798;2023-03-20T03:19:24;100357.90;;;14.42;54.26
76519;BME280;67029;51.054;13.798;2023-03-20T03:21:51;100358.87;;;14.41;54.25
76519;BME280;67029;51.054;13.798;2023-03-20T03:24:32;100355.39;;;14.41;54.33
76519;BME280;67029;51.054;13.798;2023-03-20T03:26:52;100349.34;;;14.38;54.09
76519;BME280;67029;51.054;13.798;2023-03-20T03:29:22;100346.38;;;14.38;54.26
76519;BME280;67029;51.054;13.798;2023-03-20T03:31:53;100347.83;;;14.38;54.12
76519;BME280;67029;51.054;13.798;2023-03-20T03:34:23;100346.05;;;14.40;54.41
76519;BME280;67029;51.054;13.798;2023-03-20T03:37:01;100343.16;;;14.41;54.31
76519;BME280;67029;51.054;13.798;2023-03-20T03:39:44;100349.41;;;14.39;54.17
76519;BME280;67029;51.054;13.798;2023-03-20T03:42:14;100342.45;;;14.38;54.33
76519;BME280;67029;51.054;13.798;2023-03-20T03:46:57;100345.73;;;14.36;54.41
76519;BME280;67029;51.054;13.798;2023-03-20T03:49:29;100348.39;;;14.35;54.40
76519;BME280;67029;51.054;13.798;2023-03-20T03:52:00;100352.15;;;14.35;54.46
76519;BME280;67029;51.054;13.798;2023-03-20T03:54:33;100350.13;;;14.34;54.44
76519;BME280;67029;51.054;13.798;2023-03-20T03:57:01;100351.75;;;14.34;54.43
76519;BME280;67029;51.054;13.798;2023-03-20T03:59:35;100350.49;;;14.34;54.50
76519;BME280;67029;51.054;13.798;2023-03-20T04:02:01;100350.48;;;14.33;54.54
76519;BME280;67029;51.054;13.798;2023-03-20T04:04:31;100356.80;;;14.33;54.41
76519;BME280;67029;51.054;13.798;2023-03-20T04:07:00;100355.27;;;14.33;54.50
76519;BME280;67029;51.054;13.798;2023-03-20T04:09:30;100352.76;;;14.32;54.53
76519;BME280;67029;51.054;13.798;2023-03-20T04:12:00;100350.53;;;14.29;54.59
76519;BME280;67029;51.054;13.798;2023-03-20T04:14:30;100352.83;;;14.29;54.64
76519;BME280;67029;51.054;13.798;2023-03-20T04:17:00;100353.11;;;14.26;54.43
76519;BME280;67029;51.054;13.798;2023-03-20T04:19:30;100354.41;;;14.24;54.58
76519;BME280;67029;51.054;13.798;2023-03-20T04:22:00;100357.25;;;14.25;54.73
76519;BME280;67029;51.054;13.798;2023-03-20T04:24:30;100357.61;;;14.25;54.61
76519;BME280;67029;51.054;13.798;2023-03-20T04:27:00;100360.69;;;14.27;54.78
76519;BME280;67029;51.054;13.798;2023-03-20T04:29:30;100358.74;;;14.27;54.62
76519;BME280;67029;51.054;13.798;2023-03-20T04:32:00;100357.17;;;14.25;54.57
76519;BME280;67029;51.054;13.798;2023-03-20T04:34:30;100359.58;;;14.25;54.51
76519;BME280;67029;51.054;13.798;2023-03-20T04:37:00;100365.48;;;14.24;54.68
76519;BME280;67029;51.054;13.798;2023-03-20T04:39:31;100362.78;;;14.25;54.66
76519;BME280;67029;51.054;13.798;2023-03-20T04:42:01;100362.73;;;14.27;54.85
76519;BME280;67029;51.054;13.798;2023-03-20T04:44:31;100360.58;;;14.29;54.97
76519;BME280;67029;51.054;13.798;2023-03-20T04:47:01;100366.45;;;14.28;54.99
76519;BME280;67029;51.054;13.798;2023-03-20T04:49:31;100362.98;;;14.28;55.04
76519;BME280;67029;51.054;13.798;2023-03-20T04:52:01;100366.39;;;14.27;54.90
76519;BME280;67029;51.054;13.798;2023-03-20T04:54:31;100362.97;;;14.26;54.97
76519;BME280;67029;51.054;13.798;2023-03-20T04:57:01;100371.20;;;14.26;55.03
76519;BME280;67029;51.054;13.798;2023-03-20T04:59:31;100368.02;;;14.24;54.90
76519;BME280;67029;51.054;13.798;2023-03-20T05:02:01;100370.56;;;14.23;55.03
76519;BME280;67029;51.054;13.798;2023-03-20T05:04:31;100371.39;;;14.22;55.16
76519;BME280;67029;51.054;13.798;2023-03-20T05:07:01;100371.73;;;14.21;55.08
76519;BME280;67029;51.054;13.798;2023-03-20T05:09:31;100375.50;;;14.21;55.16
76519;BME280;67029;51.054;13.798;2023-03-20T05:12:01;100376.67;;;14.22;55.34
76519;BME280;67029;51.054;13.798;2023-03-20T05:14:31;100380.94;;;14.21;55.45
76519;BME280;67029;51.054;13.798;2023-03-20T05:17:01;100383.17;;;14.17;55.21
76519;BME280;67029;51.054;13.798;2023-03-20T05:19:31;100386.28;;;14.15;55.36
76519;BME280;67029;51.054;13.798;2023-03-20T05:22:01;100389.07;;;14.15;55.43
76519;BME280;67029;51.054;13.798;2023-03-20T05:24:31;100394.58;;;14.13;55.41
76519;BME280;67029;51.054;13.798;2023-03-20T05:27:01;100399.58;;;14.14;55.99
76519;BME280;67029;51.054;13.798;2023-03-20T05:29:31;100401.22;;;14.12;56.00
76519;BME280;67029;51.054;13.798;2023-03-20T05:32:01;100406.55;;;14.10;56.00
76519;BME280;67029;51.054;13.798;2023-03-20T05:34:31;100404.78;;;14.10;56.13
76519;BME280;67029;51.054;13.798;2023-03-20T05:37:01;100408.67;;;14.10;56.43
76519;BME280;67029;51.054;13.798;2023-03-20T05:39:31;100411.69;;;14.08;56.10
76519;BME280;67029;51.054;13.798;2023-03-20T05:42:01;100406.80;;;14.07;56.13
76519;BME280;67029;51.054;13.798;2023-03-20T05:44:31;100411.95;;;14.05;56.04
76519;BME280;67029;51.054;13.798;2023-03-20T05:47:01;100413.90;;;14.05;56.06
76519;BME280;67029;51.054;13.798;2023-03-20T05:49:31;100423.95;;;14.07;55.92
76519;BME280;67029;51.054;13.798;2023-03-20T05:52:01;100421.83;;;14.10;56.37
76519;BME280;67029;51.054;13.798;2023-03-20T05:54:31;100427.96;;;14.14;56.54
76519;BME280;67029;51.054;13.798;2023-03-20T05:57:01;100424.03;;;14.14;56.26
76519;BME280;67029;51.054;13.798;2023-03-20T05:59:31;100426.56;;;14.15;56.15
76519;BME280;67029;51.054;13.798;2023-03-20T06:02:01;100427.36;;;14.17;56.19
76519;BME280;67029;51.054;13.798;2023-03-20T06:04:31;100426.20;;;14.19;56.04
76519;BME280;67029;51.054;13.798;2023-03-20T06:07:02;100431.44;;;14.20;56.00
76519;BME280;67029;51.054;13.798;2023-03-20T06:09:32;100427.70;;;14.23;55.88
76519;BME280;67029;51.054;13.798;2023-03-20T06:12:02;100429.70;;;14.27;55.81
76519;BME280;67029;51.054;13.798;2023-03-20T06:14:32;100433.70;;;14.34;55.94
76519;BME280;67029;51.054;13.798;2023-03-20T06:17:02;100428.12;;;14.35;55.74
76519;BME280;67029;51.054;13.798;2023-03-20T06:19:32;100431.12;;;14.31;56.47
76519;BME280;67029;51.054;13.798;2023-03-20T06:22:03;100432.84;;;14.28;56.08
76519;BME280;67029;51.054;13.798;2023-03-20T06:24:33;100438.03;;;14.22;56.44
76519;BME280;67029;51.054;13.798;2023-03-20T06:27:03;100436.55;;;14.19;56.66
76519;BME280;67029;51.054;13.798;2023-03-20T06:29:33;100438.52;;;14.19;56.62
76519;BME280;67029;51.054;13.798;2023-03-20T06:32:05;100438.43;;;14.20;56.95
76519;BME280;67029;51.054;13.798;2023-03-20T06:34:33;100442.23;;;14.33;56.68
76519;BME280;67029;51.054;13.798;2023-03-20T06:37:03;100439.27;;;14.35;56.51
76519;BME280;67029;51.054;13.798;2023-03-20T06:39:33;100440.61;;;14.33;56.54
76519;BME280;67029;51.054;13.798;2023-03-20T06:42:03;100440.88;;;14.39;56.92
76519;BME280;67029;51.054;13.798;2023-03-20T06:44:33;100442.46;;;14.46;56.48
76519;BME280;67029;51.054;13.798;2023-03-20T06:47:03;100448.48;;;14.52;56.32
76519;BME280;67029;51.054;13.798;2023-03-20T06:49:33;100441.31;;;14.48;56.55
76519;BME280;67029;51.054;13.798;2023-03-20T06:52:03;100440.82;;;14.53;56.48
76519;BME280;67029;51.054;13.798;2023-03-20T06:54:33;100439.67;;;14.62;56.20
76519;BME280;67029;51.054;13.798;2023-03-20T06:57:03;100439.70;;;14.75;56.00
76519;BME280;67029;51.054;13.798;2023-03-20T06:59:33;100435.13;;;14.95;55.77
76519;BME280;67029;51.054;13.798;2023-03-20T07:02:03;100436.17;;;15.16;55.42
76519;BME280;67029;51.054;13.798;2023-03-20T07:04:33;100431.36;;;15.38;55.01
76519;BME280;67029;51.054;13.798;2023-03-20T07:07:03;100429.70;;;15.49;54.91
76519;BME280;67029;51.054;13.798;2023-03-20T07:09:33;100427.55;;;15.59;54.78
76519;BME280;67029;51.054;13.798;2023-03-20T07:12:04;100430.00;;;15.77;54.55
76519;BME280;67029;51.054;13.798;2023-03-20T07:14:34;100436.75;;;16.00;54.28
76519;BME280;67029;51.054;13.798;2023-03-20T07:17:04;100430.00;;;16.27;53.48
76519;BME280;67029;51.054;13.798;2023-03-20T07:19:34;100427.50;;;16.35;53.25
76519;BME280;67029;51.054;13.798;2023-03-20T07:22:07;100432.76;;;16.55;53.19
76519;BME280;67029;51.054;13.798;2023-03-20T07:24:34;100441.87;;;16.78;52.80
76519;BME280;67029;51.054;13.798;2023-03-20T07:27:04;100438.88;;;16.96;52.36
76519;BME280;67029;51.054;13.798;2023-03-20T07:29:34;100439.61;;;17.12;51.93
76519;BME280;67029;51.054;13.798;2023-03-20T07:32:04;100437.67;;;17.37;51.30
76519;BME280;67029;51.054;13.798;2023-03-20T07:34:35;100448.14;;;17.60;50.90
76519;BME280;67029;51.054;13.798;2023-03-20T07:37:05;100448.81;;;17.72;50.80
76519;BME280;67029;51.054;13.798;2023-03-20T07:39:35;100451.13;;;17.80;50.25
76519;BME280;67029;51.054;13.798;2023-03-20T07:42:05;100455.69;;;17.89;49.93
76519;BME280;67029;51.054;13.798;2023-03-20T07:44:35;100458.53;;;17.94;49.76
76519;BME280;67029;51.054;13.798;2023-03-20T07:47:05;100454.48;;;17.93;49.70
76519;BME280;67029;51.054;13.798;2023-03-20T07:49:35;100457.32;;;17.96;49.75
76519;BME280;67029;51.054;13.798;2023-03-20T07:52:05;100458.32;;;17.97;49.75
76519;BME280;67029;51.054;13.798;2023-03-20T07:54:35;100461.45;;;17.96;49.75
76519;BME280;67029;51.054;13.798;2023-03-20T07:57:05;100463.22;;;17.94;49.65
76519;BME280;67029;51.054;13.798;2023-03-20T07:59:35;100466.07;;;17.96;49.62
76519;BME280;67029;51.054;13.798;2023-03-20T08:02:05;100466.73;;;17.93;49.54
76519;BME280;67029;51.054;13.798;2023-03-20T08:04:35;100472.62;;;17.90;49.56
76519;BME280;67029;51.054;13.798;2023-03-20T08:07:05;100469.67;;;17.77;49.81
76519;BME280;67029;51.054;13.798;2023-03-20T08:09:36;100473.11;;;17.72;49.84
76519;BME280;67029;51.054;13.798;2023-03-20T08:12:06;100473.26;;;17.70;49.81
76519;BME280;67029;51.054;13.798;2023-03-20T08:14:36;100476.63;;;17.58;49.99
76519;BME280;67029;51.054;13.798;2023-03-20T08:17:06;100473.92;;;17.58;49.91
76519;BME280;67029;51.054;13.798;2023-03-20T08:19:36;100474.34;;;17.51;50.01
76519;BME280;67029;51.054;13.798;2023-03-20T08:22:06;100472.28;;;17.41;50.13
76519;BME280;67029;51.054;13.798;2023-03-20T08:24:36;100470.75;;;17.38;50.28
76519;BME280;67029;51.054;13.798;2023-03-20T08:27:06;100475.09;;;17.39;50.21
76519;BME280;67029;51.054;13.798;2023-03-20T08:29:36;100469.02;;;17.30;50.45
76519;BME280;67029;51.054;13.798;2023-03-20T08:32:06;100477.45;;;17.21;50.54
76519;BME280;67029;51.054;13.798;2023-03-20T08:34:36;100475.52;;;17.19;50.54
76519;BME280;67029;51.054;13.798;2023-03-20T08:37:06;100475.90;;;17.16;50.52
76519;BME280;67029;51.054;13.798;2023-03-20T08:39:36;100477.50;;;17.10;50.78
76519;BME280;67029;51.054;13.798;2023-03-20T08:42:06;100475.70;;;17.08;50.76
76519;BME280;67029;51.054;13.798;2023-03-20T08:44:36;100481.98;;;16.98;50.90
76519;BME280;67029;51.054;13.798;2023-03-20T08:47:06;100482.03;;;16.99;51.02
76519;BME280;67029;51.054;13.798;2023-03-20T08:49:36;100481.68;;;17.03;51.16
76519;BME280;67029;51.054;13.798;2023-03-20T08:52:06;100481.61;;;17.06;51.10
76519;BME280;67029;51.054;13.798;2023-03-20T08:54:36;100483.22;;;17.06;51.18
76519;BME280;67029;51.054;13.798;2023-03-20T08:57:06;100488.16;;;17.13;51.15
76519;BME280;67029;51.054;13.798;2023-03-20T08:59:36;100486.47;;;17.21;51.22
76519;BME280;67029;51.054;13.798;2023-03-20T09:02:08;100485.02;;;17.28;51.12
76519;BME280;67029;51.054;13.798;2023-03-20T09:04:37;100483.95;;;17.33;51.06
76519;BME280;67029;51.054;13.798;2023-03-20T09:07:07;100487.77;;;17.30;51.08
76519;BME280;67029;51.054;13.798;2023-03-20T09:09:37;100482.48;;;17.34;51.19
76519;BME280;67029;51.054;13.798;2023-03-20T09:12:07;100484.41;;;17.48;51.10
76519;BME280;67029;51.054;13.798;2023-03-20T09:14:37;100489.53;;;17.69;51.31
76519;BME280;67029;51.054;13.798;2023-03-20T09:17:07;100492.79;;;17.97;51.16
76519;BME280;67029;51.054;13.798;2023-03-20T09:19:37;100492.01;;;18.10;50.72
76519;BME280;67029;51.054;13.798;2023-03-20T09:22:07;100492.62;;;18.17;50.18
76519;BME280;67029;51.054;13.798;2023-03-20T09:24:37;100493.05;;;18.07;50.30
76519;BME280;67029;51.054;13.798;2023-03-20T09:27:08;100490.30;;;18.18;49.91
76519;BME280;67029;51.054;13.798;2023-03-20T09:29:37;100491.19;;;18.19;49.86
76519;BME280;67029;51.054;13.798;2023-03-20T09:32:11;100493.19;;;18.20;49.63
76519;BME280;67029;51.054;13.798;2023-03-20T09:34:38;100491.08;;;18.09;49.90
76519;BME280;67029;51.054;13.798;2023-03-20T09:37:08;100496.73;;;18.19;50.07
76519;BME280;67029;51.054;13.798;2023-03-20T09:39:38;100494.88;;;18.40;49.92
76519;BME280;67029;51.054;13.798;2023-03-20T09:42:35;100494.62;;;18.60;49.47
76519;BME280;67029;51.054;13.798;2023-03-20T09:47:37;100489.69;;;18.64;49.32
76519;BME280;67029;51.054;13.798;2023-03-20T09:49:44;100496.56;;;18.68;49.30
76519;BME280;67029;51.054;13.798;2023-03-20T09:52:30;100500.18;;;18.66;49.21
76519;BME280;67029;51.054;13.798;2023-03-20T09:54:42;100506.52;;;18.72;49.19
76519;BME280;67029;51.054;13.798;2023-03-20T09:57:21;100505.50;;;18.80;49.01
76519;BME280;67029;51.054;13.798;2023-03-20T09:59:41;100509.17;;;18.76;48.98
76519;BME280;67029;51.054;13.798;2023-03-20T10:02:24;100508.61;;;18.73;49.07
76519;BME280;67029;51.054;13.798;2023-03-20T10:04:42;100509.72;;;18.64;49.15
76519;BME280;67029;51.054;13.798;2023-03-20T10:07:15;100510.11;;;18.66;49.18
76519;BME280;67029;51.054;13.798;2023-03-20T10:09:43;100507.42;;;18.53;49.36
76519;BME280;67029;51.054;13.798;2023-03-20T10:17:26;100510.94;;;18.86;49.54
76519;BME280;67029;51.054;13.798;2023-03-20T10:19:55;100507.92;;;19.41;49.55
76519;BME280;67029;51.054;13.798;2023-03-20T10:22:23;100505.08;;;19.97;48.78
76519;BME280;67029;51.054;13.798;2023-03-20T10:24:55;100505.97;;;20.32;46.29
76519;BME280;67029;51.054;13.798;2023-03-20T10:27:23;100510.04;;;20.66;46.58
76519;BME280;67029;51.054;13.798;2023-03-20T10:32:27;100499.53;;;21.45;45.64
76519;BME280;67029;51.054;13.798;2023-03-20T10:37:32;100501.80;;;22.36;44.08
76519;BME280;67029;51.054;13.798;2023-03-20T10:42:24;100501.80;;;23.23;41.49
76519;BME280;67029;51.054;13.798;2023-03-20T10:44:52;100491.69;;;23.49;40.51
76519;BME280;67029;51.054;13.798;2023-03-20T10:47:22;100502.12;;;23.57;40.01
76519;BME280;67029;51.054;13.798;2023-03-20T10:49:56;100499.48;;;23.54;40.50
76519;BME280;67029;51.054;13.798;2023-03-20T10:52:27;100498.33;;;23.53;40.19
76519;BME280;67029;51.054;13.798;2023-03-20T10:54:55;100504.64;;;23.41;39.56
76519;BME280;67029;51.054;13.798;2023-03-20T10:57:24;100499.02;;;23.22;39.70
76519;BME280;67029;51.054;13.798;2023-03-20T10:59:56;100500.17;;;23.01;40.06
76519;BME280;67029;51.054;13.798;2023-03-20T11:02:28;100499.98;;;22.79;40.50
76519;BME280;67029;51.054;13.798;2023-03-20T11:04:53;100506.42;;;22.42;40.75
76519;BME280;67029;51.054;13.798;2023-03-20T11:07:31;100504.45;;;22.04;41.47
76519;BME280;67029;51.054;13.798;2023-03-20T11:10:09;100507.55;;;21.84;42.13
76519;BME280;67029;51.054;13.798;2023-03-20T11:12:47;100505.92;;;21.80;42.19
76519;BME280;67029;51.054;13.798;2023-03-20T11:14:58;100505.28;;;21.74;42.46
76519;BME280;67029;51.054;13.798;2023-03-20T11:17:27;100503.01;;;21.84;42.73
76519;BME280;67029;51.054;13.798;2023-03-20T11:20:03;100501.65;;;22.05;42.95
76519;BME280;67029;51.054;13.798;2023-03-20T11:22:27;100508.88;;;22.44;42.88
76519;BME280;67029;51.054;13.798;2023-03-20T11:24:57;100497.88;;;22.79;41.78
76519;BME280;67029;51.054;13.798;2023-03-20T11:27:28;100500.31;;;22.89;41.09
76519;BME280;67029;51.054;13.798;2023-03-20T11:29:57;100501.61;;;22.87;40.27
76519;BME280;67029;51.054;13.798;2023-03-20T11:32:29;100504.98;;;22.79;40.76
76519;BME280;67029;51.054;13.798;2023-03-20T11:37:32;100494.49;;;22.70;40.85
76519;BME280;67029;51.054;13.798;2023-03-20T11:40:15;100503.00;;;22.67;40.75
76519;BME280;67029;51.054;13.798;2023-03-20T11:42:28;100492.89;;;22.68;41.03
76519;BME280;67029;51.054;13.798;2023-03-20T11:45:14;100482.47;;;22.67;40.97
76519;BME280;67029;51.054;13.798;2023-03-20T11:47:35;100479.98;;;22.65;41.17
76519;BME280;67029;51.054;13.798;2023-03-20T11:50:02;100480.08;;;22.62;41.04
76519;BME280;67029;51.054;13.798;2023-03-20T11:52:32;100484.52;;;22.56;40.85
76519;BME280;67029;51.054;13.798;2023-03-20T11:55:04;100486.69;;;22.43;41.31
76519;BME280;67029;51.054;13.798;2023-03-20T11:57:36;100489.73;;;22.44;41.25
76519;BME280;67029;51.054;13.798;2023-03-20T12:02:34;100489.13;;;22.23;41.21
76519;BME280;67029;51.054;13.798;2023-03-20T12:07:37;100480.07;;;22.00;41.61
76519;BME280;67029;51.054;13.798;2023-03-20T12:10:10;100474.59;;;21.92;41.79
76519;BME280;67029;51.054;13.798;2023-03-20T12:12:57;100470.11;;;21.85;41.92
76519;BME280;67029;51.054;13.798;2023-03-20T12:15:16;100472.03;;;21.75;42.04
76519;BME280;67029;51.054;13.798;2023-03-20T12:17:56;100471.52;;;21.60;42.22
76519;BME280;67029;51.054;13.798;2023-03-20T12:22:50;100470.77;;;21.43;42.62
76519;BME280;67029;51.054;13.798;2023-03-20T12:25:32;100473.88;;;21.27;42.85
76519;BME280;67029;51.054;13.798;2023-03-20T12:27:42;100469.70;;;21.18;43.05
76519;BME280;67029;51.054;13.798;2023-03-20T12:30:21;100460.98;;;21.08;43.20
76519;BME280;67029;51.054;13.798;2023-03-20T12:32:54;100470.00;;;21.04;43.39
76519;BME280;67029;51.054;13.798;2023-03-20T12:35:17;100464.45;;;20.98;43.46
76519;BME280;67029;51.054;13.798;2023-03-20T12:37:40;100462.03;;;20.95;43.59
76519;BME280;67029;51.054;13.798;2023-03-20T12:40:15;100463.91;;;20.89;43.62
76519;BME280;67029;51.054;13.798;2023-03-20T12:43:00;100458.06;;;20.80;43.72
76519;BME280;67029;51.054;13.798;2023-03-20T12:45:16;100456.96;;;20.72;43.86
76519;BME280;67029;51.054;13.798;2023-03-20T12:50:30;100449.32;;;20.55;44.23
76519;BME280;67029;51.054;13.798;2023-03-20T13:00:23;100448.40;;;20.06;45.09
76519;BME280;67029;51.054;13.798;2023-03-20T13:02:59;100447.91;;;20.05;45.22
76519;BME280;67029;51.054;13.798;2023-03-20T13:05:46;100447.34;;;20.02;45.48
76519;BME280;67029;51.054;13.798;2023-03-20T13:08:12;100446.38;;;20.06;45.49
76519;BME280;67029;51.054;13.798;2023-03-20T13:10:23;100439.75;;;20.13;45.85
76519;BME280;67029;51.054;13.798;2023-03-20T13:13:07;100437.34;;;20.16;45.57
76519;BME280;67029;51.054;13.798;2023-03-20T13:20:28;100434.80;;;20.41;45.07
76519;BME280;67029;51.054;13.798;2023-03-20T13:23:11;100430.95;;;20.42;45.03
76519;BME280;67029;51.054;13.798;2023-03-20T13:25:46;100430.94;;;20.28;45.20
76519;BME280;67029;51.054;13.798;2023-03-20T13:27:52;100428.67;;;20.30;45.19
76519;BME280;67029;51.054;13.798;2023-03-20T13:30:32;100426.99;;;20.29;45.18
76519;BME280;67029;51.054;13.798;2023-03-20T13:33:08;100425.66;;;20.28;45.15
76519;BME280;67029;51.054;13.798;2023-03-20T13:35:45;100422.06;;;20.25;45.17
76519;BME280;67029;51.054;13.798;2023-03-20T13:37:51;100421.06;;;20.23;45.27
76519;BME280;67029;51.054;13.798;2023-03-20T13:40:29;100419.42;;;20.18;45.28
76519;BME280;67029;51.054;13.798;2023-03-20T13:42:59;100408.48;;;20.17;45.33
76519;BME280;67029;51.054;13.798;2023-03-20T13:45:28;100413.77;;;20.14;45.25
76519;BME280;67029;51.054;13.798;2023-03-20T13:47:51;100412.78;;;20.08;45.40
76519;BME280;67029;51.054;13.798;2023-03-20T13:50:32;100410.52;;;20.01;45.45
76519;BME280;67029;51.054;13.798;2023-03-20T13:53:04;100405.38;;;19.96;45.54